createdAt,value
2022-09-01T00:01:49.527Z,24.83
2022-09-01T00:04:20.242Z,24.83
2022-09-01T00:06:48.414Z,24.76
2022-09-01T00:09:18.787Z,24.84
2022-09-01T00:11:50.731Z,24.77
2022-09-01T00:14:29.457Z,24.61
2022-09-01T00:17:03.352Z,24.74
2022-09-01T00:19:30.536Z,24.68
2022-09-01T00:21:57.485Z,24.61
2022-09-01T00:24:26.383Z,24.67
2022-09-01T00:26:54.875Z,24.45
2022-09-01T00:29:22.678Z,24.67
2022-09-01T00:31:50.466Z,24.68
2022-09-01T00:34:17.859Z,24.62
2022-09-01T00:36:44.796Z,24.51
2022-09-01T00:39:12.659Z,24.54
2022-09-01T00:41:44.942Z,24.50
2022-09-01T00:44:16.001Z,24.50
2022-09-01T00:46:49.761Z,24.32
2022-09-01T00:49:26.728Z,24.27
2022-09-01T00:51:58.763Z,24.15
2022-09-01T00:54:31.271Z,23.95
2022-09-01T00:56:58.734Z,24.13
2022-09-01T00:59:26.867Z,24.22
2022-09-01T01:01:55.999Z,24.19
2022-09-01T01:04:23.368Z,24.25
2022-09-01T01:07:02.342Z,24.35
2022-09-01T01:09:36.341Z,24.32
2022-09-01T01:12:05.305Z,24.09
2022-09-01T01:14:36.914Z,23.97
2022-09-01T01:17:04.347Z,23.97
2022-09-01T01:20:05.876Z,24.09
2022-09-01T01:23:07.723Z,24.20
2022-09-01T01:25:38.528Z,24.07
2022-09-01T01:28:09.352Z,23.79
2022-09-01T01:30:39.733Z,23.77
2022-09-01T01:33:07.375Z,23.70
2022-09-01T01:35:37.431Z,23.81
2022-09-01T01:38:07.999Z,23.45
2022-09-01T01:40:38.094Z,23.66
2022-09-01T01:43:05.421Z,23.65
2022-09-01T01:45:32.408Z,24.03
2022-09-01T01:48:01.207Z,23.97
2022-09-01T01:50:35.849Z,23.97
2022-09-01T01:53:10.825Z,23.79
2022-09-01T01:55:41.930Z,23.67
2022-09-01T01:58:12.369Z,23.96
2022-09-01T02:00:39.751Z,23.77
2022-09-01T02:03:07.595Z,23.85
2022-09-01T02:05:36.248Z,24.02
2022-09-01T02:08:08.709Z,23.92
2022-09-01T02:10:42.360Z,24.01
2022-09-01T02:13:16.188Z,23.94
2022-09-01T02:15:50.162Z,24.06
2022-09-01T02:18:31.147Z,24.10
2022-09-01T02:21:01.067Z,23.88
2022-09-01T02:23:28.410Z,23.78
2022-09-01T02:26:16.167Z,23.62
2022-09-01T02:28:55.596Z,23.66
2022-09-01T02:31:29.358Z,23.71
2022-09-01T02:34:01.139Z,23.84
2022-09-01T02:36:28.964Z,23.38
2022-09-01T02:38:56.500Z,23.77
2022-09-01T02:41:27.205Z,23.59
2022-09-01T02:43:54.728Z,23.70
2022-09-01T02:46:24.504Z,23.87
2022-09-01T02:48:53.049Z,23.66
2022-09-01T02:51:25.845Z,23.63
2022-09-01T02:53:53.381Z,23.63
2022-09-01T02:56:25.109Z,23.79
2022-09-01T02:58:54.873Z,23.44
2022-09-01T03:01:29.376Z,23.64
2022-09-01T03:04:04.187Z,23.59
2022-09-01T03:06:34.564Z,23.62
2022-09-01T03:09:02.504Z,23.42
2022-09-01T03:11:31.624Z,23.51
2022-09-01T03:13:58.760Z,23.61
2022-09-01T03:16:25.689Z,23.07
2022-09-01T03:18:53.165Z,23.44
2022-09-01T03:21:20.915Z,23.49
2022-09-01T03:23:51.016Z,23.28
2022-09-01T03:26:21.122Z,23.35
2022-09-01T03:28:50.763Z,23.39
2022-09-01T03:31:19.583Z,23.42
2022-09-01T03:33:48.454Z,23.54
2022-09-01T03:36:24.952Z,23.49
2022-09-01T03:38:52.946Z,23.35
2022-09-01T03:41:25.117Z,23.27
2022-09-01T03:43:58.153Z,23.33
2022-09-01T03:46:34.246Z,23.33
2022-09-01T03:49:06.891Z,23.17
2022-09-01T03:51:38.006Z,23.28
2022-09-01T03:54:06.936Z,23.22
2022-09-01T03:56:34.083Z,23.11
2022-09-01T03:59:01.027Z,22.98
2022-09-01T04:01:34.952Z,22.97
2022-09-01T04:04:03.104Z,22.98
2022-09-01T04:06:33.170Z,23.02
2022-09-01T04:09:03.381Z,22.98
2022-09-01T04:11:35.122Z,22.91
2022-09-01T04:14:02.345Z,23.31
2022-09-01T04:16:53.308Z,23.35
2022-09-01T04:19:26.679Z,23.32
2022-09-01T04:22:02.365Z,23.29
2022-09-01T04:24:45.097Z,23.13
2022-09-01T04:27:13.791Z,23.03
2022-09-01T04:29:41.818Z,23.16
2022-09-01T04:32:13.135Z,23.10
2022-09-01T04:34:43.450Z,22.96
2022-09-01T04:37:19.470Z,23.12
2022-09-01T04:39:56.065Z,23.22
2022-09-01T04:42:27.383Z,23.12
2022-09-01T04:44:57.519Z,22.85
2022-09-01T04:47:35.200Z,23.01
2022-09-01T04:50:14.922Z,23.13
2022-09-01T04:53:06.194Z,22.60
2022-09-01T04:55:43.670Z,22.83
2022-09-01T04:58:13.776Z,22.32
2022-09-01T05:00:41.077Z,22.67
2022-09-01T05:03:09.367Z,22.76
2022-09-01T05:06:00.196Z,22.99
2022-09-01T05:08:29.034Z,22.92
2022-09-01T05:11:06.139Z,23.02
2022-09-01T05:13:39.819Z,23.05
2022-09-01T05:16:13.193Z,23.21
2022-09-01T05:18:47.898Z,23.12
2022-09-01T05:21:22.190Z,23.20
2022-09-01T05:23:50.603Z,23.06
2022-09-01T05:26:23.840Z,23.47
2022-09-01T05:28:56.877Z,23.76
2022-09-01T05:31:25.799Z,23.69
2022-09-01T05:33:52.600Z,23.37
2022-09-01T05:36:23.538Z,23.26
2022-09-01T05:38:52.385Z,23.28
2022-09-01T05:41:21.064Z,23.33
2022-09-01T05:43:55.154Z,23.59
2022-09-01T05:46:28.245Z,23.26
2022-09-01T05:48:57.300Z,23.57
2022-09-01T05:51:44.318Z,23.24
2022-09-01T05:54:14.538Z,23.48
2022-09-01T05:56:44.786Z,23.70
2022-09-01T05:59:24.784Z,23.56
2022-09-01T06:01:57.962Z,23.69
2022-09-01T06:04:26.984Z,23.67
2022-09-01T06:07:09.378Z,23.80
2022-09-01T06:09:42.795Z,23.79
2022-09-01T06:12:18.415Z,23.77
2022-09-01T06:14:48.950Z,23.95
2022-09-01T06:17:25.119Z,23.84
2022-09-01T06:19:56.063Z,24.19
2022-09-01T06:22:25.099Z,24.45
2022-09-01T06:24:57.971Z,24.25
2022-09-01T06:27:32.282Z,24.17
2022-09-01T06:29:59.878Z,24.06
2022-09-01T06:32:27.090Z,23.95
2022-09-01T06:34:58.172Z,23.95
2022-09-01T06:37:25.761Z,24.13
2022-09-01T06:39:57.627Z,24.43
2022-09-01T06:42:25.148Z,24.63
2022-09-01T06:44:57.443Z,24.05
2022-09-01T06:47:24.968Z,24.25
2022-09-01T06:49:55.938Z,24.26
2022-09-01T06:52:25.815Z,24.63
2022-09-01T06:54:55.016Z,24.72
2022-09-01T07:03:09.507Z,24.53
2022-09-01T07:06:01.433Z,24.00
2022-09-01T07:14:28.189Z,24.79
2022-09-01T07:19:51.526Z,24.36
2022-09-01T07:25:12.932Z,24.59
2022-09-01T07:28:01.624Z,24.62
2022-09-01T07:30:31.993Z,24.49
2022-09-01T07:33:41.593Z,24.70
2022-09-01T07:39:48.397Z,25.06
2022-09-01T07:42:30.980Z,24.33
2022-09-01T07:44:20.380Z,26.07
2022-09-01T07:53:04.744Z,26.23
2022-09-01T07:55:32.408Z,26.24
2022-09-01T07:58:02.306Z,25.55
2022-09-01T08:00:31.704Z,25.82
2022-09-01T08:03:04.127Z,26.07
2022-09-01T08:05:31.955Z,26.48
2022-09-01T08:07:58.848Z,27.09
2022-09-01T08:10:32.107Z,27.22
2022-09-01T08:12:59.386Z,26.93
2022-09-01T08:16:06.753Z,26.57
2022-09-01T08:18:15.053Z,26.74
2022-09-01T08:20:45.657Z,26.66
2022-09-01T08:23:31.391Z,27.22
2022-09-01T08:25:58.735Z,27.09
2022-09-01T08:28:27.079Z,27.38
2022-09-01T08:30:56.423Z,27.55
2022-09-01T08:33:26.456Z,27.79
2022-09-01T08:35:54.139Z,28.16
2022-09-01T08:38:22.334Z,28.52
2022-09-01T08:40:57.053Z,28.39
2022-09-01T08:44:14.399Z,28.79
2022-09-01T08:46:43.732Z,28.87
2022-09-01T08:49:27.808Z,29.12
2022-09-01T08:52:22.659Z,28.89
2022-09-01T08:54:58.023Z,29.21
2022-09-01T08:57:32.838Z,28.88
2022-09-01T09:00:23.395Z,29.49
2022-09-01T09:03:00.280Z,29.51
2022-09-01T09:05:43.349Z,28.90
2022-09-01T09:08:46.010Z,29.97
2022-09-01T09:11:59.015Z,30.38
2022-09-01T09:14:34.946Z,30.70
2022-09-01T09:17:04.388Z,30.58
2022-09-01T09:19:34.895Z,29.94
2022-09-01T09:22:05.987Z,30.27
2022-09-01T09:24:56.384Z,30.71
2022-09-01T09:27:32.523Z,30.23
2022-09-01T09:30:23.868Z,30.30
2022-09-01T09:35:44.339Z,30.73
2022-09-01T09:38:21.762Z,31.13
2022-09-01T09:41:25.760Z,31.94
2022-09-01T09:44:05.922Z,31.27
2022-09-01T09:46:32.818Z,31.29
2022-09-01T09:49:21.630Z,30.86
2022-09-01T09:52:01.950Z,31.54
2022-09-01T09:54:31.619Z,31.93
2022-09-01T09:57:17.592Z,31.45
2022-09-01T10:00:00.543Z,31.17
2022-09-01T10:02:36.137Z,31.83
2022-09-01T10:05:23.896Z,32.20
2022-09-01T10:07:51.616Z,31.77
2022-09-01T10:10:29.739Z,31.50
2022-09-01T10:12:58.000Z,31.84
2022-09-01T10:15:32.468Z,31.47
2022-09-01T10:18:31.997Z,31.35
2022-09-01T10:21:08.513Z,31.83
2022-09-01T10:23:38.790Z,32.04
2022-09-01T10:26:37.439Z,32.14
2022-09-01T10:29:15.812Z,31.82
2022-09-01T10:31:43.347Z,31.49
2022-09-01T10:34:19.416Z,31.05
2022-09-01T10:36:55.657Z,30.58
2022-09-01T10:39:30.530Z,30.92
2022-09-01T10:42:07.257Z,31.10
2022-09-01T10:44:55.179Z,30.97
2022-09-01T10:47:31.121Z,31.24
2022-09-01T10:50:01.830Z,31.24
2022-09-01T10:52:43.860Z,31.23
2022-09-01T10:55:26.968Z,30.68
2022-09-01T11:01:48.288Z,31.20
2022-09-01T11:04:22.100Z,31.39
2022-09-01T11:09:45.003Z,31.45
2022-09-01T11:12:29.216Z,31.24
2022-09-01T11:15:02.690Z,31.58
2022-09-01T11:17:56.154Z,31.57
2022-09-01T11:20:29.717Z,31.79
2022-09-01T11:23:04.833Z,31.93
2022-09-01T11:25:45.814Z,31.59
2022-09-01T11:28:17.866Z,31.28
2022-09-01T11:31:14.400Z,31.90
2022-09-01T11:34:19.092Z,32.22
2022-09-01T11:36:47.282Z,32.54
2022-09-01T11:39:15.154Z,32.07
2022-09-01T11:41:48.265Z,32.40
2022-09-01T11:44:26.434Z,32.41
2022-09-01T11:47:03.236Z,32.28
2022-09-01T11:49:33.458Z,32.73
2022-09-01T11:52:02.245Z,32.53
2022-09-01T11:54:37.761Z,32.88
2022-09-01T11:57:38.460Z,33.18
2022-09-01T12:00:10.184Z,33.81
2022-09-01T12:02:50.372Z,33.27
2022-09-01T12:05:38.987Z,33.63
2022-09-01T12:08:18.366Z,34.04
2022-09-01T12:10:51.055Z,33.54
2022-09-01T12:13:23.429Z,32.75
2022-09-01T12:16:17.363Z,33.02
2022-09-01T12:18:51.564Z,33.65
2022-09-01T12:21:28.268Z,34.09
2022-09-01T12:24:12.353Z,33.95
2022-09-01T12:26:40.439Z,33.73
2022-09-01T12:29:08.122Z,33.26
2022-09-01T12:31:35.452Z,33.45
2022-09-01T12:34:05.185Z,33.95
2022-09-01T12:36:35.869Z,33.70
2022-09-01T12:39:18.318Z,33.34
2022-09-01T12:41:48.689Z,33.25
2022-09-01T12:44:34.597Z,32.48
2022-09-01T12:47:10.550Z,32.77
2022-09-01T12:49:48.085Z,32.75
2022-09-01T12:52:25.884Z,33.08
2022-09-01T12:55:47.336Z,33.23
2022-09-01T12:58:07.466Z,33.26
2022-09-01T13:00:36.671Z,33.26
2022-09-01T13:03:05.239Z,32.35
2022-09-01T13:05:42.350Z,32.67
2022-09-01T13:08:11.262Z,32.62
2022-09-01T13:10:43.228Z,33.11
2022-09-01T13:13:11.788Z,33.17
2022-09-01T13:15:41.031Z,33.30
2022-09-01T13:18:07.845Z,33.03
2022-09-01T13:20:35.478Z,32.77
2022-09-01T13:23:02.730Z,32.93
2022-09-01T13:25:29.781Z,32.77
2022-09-01T13:27:56.650Z,33.17
2022-09-01T13:30:28.305Z,33.21
2022-09-01T13:35:42.773Z,32.44
2022-09-01T13:38:09.996Z,32.80
2022-09-01T13:40:36.877Z,33.24
2022-09-01T13:43:04.772Z,33.27
2022-09-01T13:45:32.005Z,33.46
2022-09-01T13:48:16.111Z,33.87
2022-09-01T13:53:33.493Z,32.35
2022-09-01T13:56:00.394Z,32.25
2022-09-01T13:58:27.416Z,31.80
2022-09-01T14:00:54.260Z,31.48
2022-09-01T14:03:23.483Z,32.38
2022-09-01T14:05:50.724Z,32.02
2022-09-01T14:08:21.059Z,31.81
2022-09-01T14:10:51.071Z,31.39
2022-09-01T14:13:20.827Z,30.91
2022-09-01T14:15:48.401Z,30.55
2022-09-01T14:18:16.570Z,30.53
2022-09-01T14:20:47.740Z,30.46
2022-09-01T14:23:16.211Z,30.92
2022-09-01T14:25:45.877Z,31.74
2022-09-01T14:28:13.578Z,31.44
2022-09-01T14:30:44.030Z,31.74
2022-09-01T14:33:11.727Z,30.98
2022-09-01T14:35:41.576Z,31.13
2022-09-01T14:38:09.730Z,31.03
2022-09-01T14:40:38.906Z,31.17
2022-09-01T14:43:12.977Z,31.03
2022-09-01T14:45:41.305Z,31.01
2022-09-01T14:48:09.151Z,30.99
2022-09-01T14:50:41.296Z,31.33
2022-09-01T14:53:08.700Z,31.17
2022-09-01T14:55:35.489Z,31.65
2022-09-01T14:58:02.354Z,31.94
2022-09-01T15:00:31.997Z,32.24
2022-09-01T15:02:58.896Z,32.11
2022-09-01T15:05:25.756Z,32.56
2022-09-01T15:07:53.219Z,32.23
2022-09-01T15:10:25.252Z,32.09
2022-09-01T15:12:58.268Z,32.09
2022-09-01T15:15:27.832Z,32.13
2022-09-01T15:17:55.952Z,32.06
2022-09-01T15:20:42.517Z,32.15
2022-09-01T15:23:10.167Z,32.20
2022-09-01T15:25:37.226Z,32.01
2022-09-01T15:28:06.107Z,32.15
2022-09-01T15:30:33.866Z,32.09
2022-09-01T15:33:00.923Z,31.93
2022-09-01T15:35:30.731Z,31.82
2022-09-01T15:37:59.148Z,31.97
2022-09-01T15:40:28.906Z,31.77
2022-09-01T15:42:57.327Z,32.02
2022-09-01T15:45:25.564Z,31.92
2022-09-01T15:47:52.445Z,32.01
2022-09-01T15:50:23.323Z,31.80
2022-09-01T15:53:07.221Z,31.25
2022-09-01T15:55:52.238Z,31.52
2022-09-01T15:58:19.252Z,31.61
2022-09-01T16:00:46.484Z,31.72
2022-09-01T16:03:13.602Z,31.73
2022-09-01T16:05:41.481Z,31.71
2022-09-01T16:08:09.733Z,30.85
2022-09-01T16:10:56.959Z,31.27
2022-09-01T16:13:23.904Z,31.42
2022-09-01T16:16:03.157Z,31.42
2022-09-01T16:18:45.885Z,31.38
2022-09-01T16:21:48.292Z,31.44
2022-09-01T16:24:15.564Z,30.96
2022-09-01T16:26:47.201Z,31.15
2022-09-01T16:29:53.212Z,30.88
2022-09-01T16:32:22.006Z,30.99
2022-09-01T16:34:51.103Z,30.87
2022-09-01T16:37:39.703Z,30.65
2022-09-01T16:40:25.696Z,30.36
2022-09-01T16:43:21.861Z,29.94
2022-09-01T16:46:07.500Z,30.50
2022-09-01T16:48:42.800Z,29.92
2022-09-01T16:51:30.084Z,30.10
2022-09-01T16:54:13.822Z,30.06
2022-09-01T16:56:59.719Z,29.98
2022-09-01T16:59:54.750Z,29.66
2022-09-01T17:02:47.852Z,29.73
2022-09-01T17:05:30.172Z,29.97
2022-09-01T17:08:12.072Z,29.56
2022-09-01T17:10:56.346Z,29.86
2022-09-01T17:13:40.010Z,30.09
2022-09-01T17:16:37.355Z,30.30
2022-09-01T17:19:07.524Z,30.18
2022-09-01T17:21:46.141Z,30.16
2022-09-01T17:24:24.138Z,30.07
2022-09-01T17:26:53.357Z,29.85
2022-09-01T17:29:26.594Z,29.92
2022-09-01T17:32:17.448Z,29.87
2022-09-01T17:34:57.166Z,29.76
2022-09-01T17:37:40.067Z,29.71
2022-09-01T17:40:16.852Z,29.67
2022-09-01T17:42:52.680Z,29.65
2022-09-01T17:45:29.002Z,29.33
2022-09-01T17:48:08.971Z,29.50
2022-09-01T17:51:12.097Z,29.62
2022-09-01T17:53:44.579Z,29.69
2022-09-01T17:56:20.482Z,29.35
2022-09-01T17:59:01.572Z,29.42
2022-09-01T18:01:32.072Z,29.44
2022-09-01T18:04:20.726Z,29.46
2022-09-01T18:06:54.664Z,29.46
2022-09-01T18:09:26.145Z,29.47
2022-09-01T18:12:02.600Z,29.38
2022-09-01T18:15:25.203Z,29.55
2022-09-01T18:18:23.950Z,29.60
2022-09-01T18:20:56.203Z,29.52
2022-09-01T18:23:24.119Z,29.38
2022-09-01T18:26:23.444Z,29.59
2022-09-01T18:28:54.740Z,29.63
2022-09-01T18:31:34.690Z,29.57
2022-09-01T18:34:31.916Z,29.53
2022-09-01T18:37:08.255Z,29.54
2022-09-01T18:39:53.194Z,29.41
2022-09-01T18:42:50.938Z,29.31
2022-09-01T18:45:39.902Z,29.20
2022-09-01T18:48:15.354Z,29.33
2022-09-01T18:50:50.009Z,29.27
2022-09-01T18:53:32.410Z,29.31
2022-09-01T18:56:11.464Z,29.07
2022-09-01T18:58:56.390Z,29.11
2022-09-01T19:01:32.911Z,29.02
2022-09-01T19:04:27.690Z,28.98
2022-09-01T19:07:15.393Z,28.94
2022-09-01T19:10:02.008Z,28.50
2022-09-01T19:12:46.651Z,28.55
2022-09-01T19:15:27.607Z,28.55
2022-09-01T19:18:19.309Z,29.06
2022-09-01T19:21:08.724Z,29.01
2022-09-01T19:23:50.847Z,28.82
2022-09-01T19:26:22.257Z,28.62
2022-09-01T19:28:58.715Z,28.72
2022-09-01T19:31:35.731Z,28.71
2022-09-01T19:34:14.761Z,28.46
2022-09-01T19:36:53.026Z,28.47
2022-09-01T19:39:25.981Z,28.56
2022-09-01T19:42:20.415Z,28.68
2022-09-01T19:45:33.030Z,28.53
2022-09-01T19:48:10.082Z,28.84
2022-09-01T19:50:51.065Z,28.88
2022-09-01T19:53:21.218Z,28.55
2022-09-01T19:56:07.212Z,28.45
2022-09-01T19:59:13.016Z,27.55
2022-09-01T20:01:56.310Z,27.95
2022-09-01T20:04:46.470Z,28.16
2022-09-01T20:07:28.895Z,28.09
2022-09-01T20:10:12.019Z,28.00
2022-09-01T20:12:49.366Z,27.65
2022-09-01T20:15:28.345Z,27.79
2022-09-01T20:18:02.413Z,27.84
2022-09-01T20:20:37.595Z,27.68
2022-09-01T20:23:21.019Z,27.30
2022-09-01T20:25:59.074Z,27.63
2022-09-01T20:28:55.702Z,27.40
2022-09-01T20:31:54.989Z,27.11
2022-09-01T20:34:32.879Z,27.17
2022-09-01T20:37:06.596Z,27.00
2022-09-01T20:39:59.787Z,27.04
2022-09-01T20:42:55.485Z,27.24
2022-09-01T20:45:25.185Z,27.53
2022-09-01T20:47:58.843Z,27.61
2022-09-01T20:50:49.881Z,27.66
2022-09-01T20:53:31.970Z,27.58
2022-09-01T20:56:04.460Z,27.71
2022-09-01T20:59:11.262Z,27.66
2022-09-01T21:01:54.216Z,27.50
2022-09-01T21:04:42.604Z,27.62
2022-09-01T21:07:39.124Z,27.60
2022-09-01T21:10:05.934Z,27.50
2022-09-01T21:12:50.891Z,27.40
2022-09-01T21:15:46.347Z,27.43
2022-09-01T21:18:25.168Z,27.45
2022-09-01T21:21:01.205Z,27.46
2022-09-01T21:23:29.622Z,27.31
2022-09-01T21:25:58.602Z,27.42
2022-09-01T21:28:28.384Z,27.38
2022-09-01T21:30:58.926Z,27.34
2022-09-01T21:33:28.510Z,27.34
2022-09-01T21:35:55.987Z,27.30
2022-09-01T21:38:22.949Z,27.21
2022-09-01T21:40:51.072Z,27.17
2022-09-01T21:43:30.028Z,27.09
2022-09-01T21:45:57.435Z,27.18
2022-09-01T21:48:24.748Z,27.13
2022-09-01T21:50:51.831Z,26.95
2022-09-01T21:53:19.091Z,26.95
2022-09-01T21:55:46.216Z,26.85
2022-09-01T21:58:13.406Z,26.70
2022-09-01T22:00:43.326Z,26.82
2022-09-01T22:03:11.792Z,26.65
2022-09-01T22:05:41.844Z,26.86
2022-09-01T22:08:14.558Z,26.84
2022-09-01T22:10:49.828Z,26.83
2022-09-01T22:13:17.910Z,26.88
2022-09-01T22:15:49.275Z,26.84
2022-09-01T22:18:17.829Z,26.88
2022-09-01T22:20:45.294Z,27.04
2022-09-01T22:23:13.621Z,26.89
2022-09-01T22:25:43.192Z,27.00
2022-09-01T22:28:11.049Z,26.77
2022-09-01T22:30:47.208Z,26.91
2022-09-01T22:33:14.407Z,26.88
2022-09-01T22:35:43.379Z,26.85
2022-09-01T22:38:10.966Z,27.07
2022-09-01T22:40:47.249Z,26.99
2022-09-01T22:43:17.809Z,26.76
2022-09-01T22:45:50.099Z,26.53
2022-09-01T22:48:19.230Z,26.36
2022-09-01T22:50:47.459Z,26.82
2022-09-01T22:53:16.685Z,26.51
2022-09-01T22:55:47.515Z,26.63
2022-09-01T22:58:15.816Z,26.58
2022-09-01T23:00:48.497Z,26.12
2022-09-01T23:03:15.803Z,26.36
2022-09-01T23:05:43.647Z,26.41
2022-09-01T23:08:11.178Z,26.53
2022-09-01T23:10:37.976Z,26.62
2022-09-01T23:13:04.755Z,26.61
2022-09-01T23:15:33.631Z,26.50
2022-09-01T23:18:00.864Z,26.48
2022-09-01T23:20:28.168Z,26.35
2022-09-01T23:22:55.127Z,26.30
2022-09-01T23:25:22.059Z,26.17
2022-09-01T23:27:48.844Z,26.13
2022-09-01T23:30:16.347Z,26.31
2022-09-01T23:32:43.705Z,26.34
2022-09-01T23:35:10.946Z,26.31
2022-09-01T23:37:37.833Z,26.46
2022-09-01T23:40:06.371Z,26.41
2022-09-01T23:42:33.667Z,26.17
2022-09-01T23:45:00.536Z,26.23
2022-09-01T23:47:28.150Z,26.24
2022-09-01T23:49:56.461Z,26.61
2022-09-01T23:52:23.283Z,26.73
2022-09-01T23:54:50.040Z,26.56
2022-09-01T23:57:16.930Z,26.62
2022-09-01T23:59:44.814Z,26.91
